sensor_id;sensor_type;location;lat;lon;timestamp;P1;durP1;ratioP1;P2;durP2;ratioP2
66721;SDS011;53633;49.932;10.884;2024-01-06T08:39:53;14.93;;;5.75;;
66721;SDS011;53633;49.932;10.884;2024-01-06T08:42:20;13.93;;;6.15;;
66721;SDS011;53633;49.932;10.884;2024-01-06T08:44:47;15.13;;;7.80;;
66721;SDS011;53633;49.932;10.884;2024-01-06T08:47:13;18.02;;;7.18;;
66721;SDS011;53633;49.932;10.884;2024-01-06T08:49:40;16.48;;;7.35;;
66721;SDS011;53633;49.932;10.884;2024-01-06T08:52:07;13.45;;;6.15;;
66721;SDS011;53633;49.932;10.884;2024-01-06T08:54:34;13.23;;;5.93;;
66721;SDS011;53633;49.932;10.884;2024-01-06T08:57:02;13.13;;;5.93;;
66721;SDS011;53633;49.932;10.884;2024-01-06T08:59:29;12.85;;;6.50;;
66721;SDS011;53633;49.932;10.884;2024-01-06T09:01:56;12.13;;;5.97;;
66721;SDS011;53633;49.932;10.884;2024-01-06T09:04:23;12.73;;;6.13;;
66721;SDS011;53633;49.932;10.884;2024-01-06T09:06:50;13.77;;;5.95;;
66721;SDS011;53633;49.932;10.884;2024-01-06T09:09:16;12.37;;;6.00;;
66721;SDS011;53633;49.932;10.884;2024-01-06T09:11:43;14.80;;;6.70;;
66721;SDS011;53633;49.932;10.884;2024-01-06T09:14:11;14.73;;;6.80;;
66721;SDS011;53633;49.932;10.884;2024-01-06T09:16:38;12.65;;;6.20;;
66721;SDS011;53633;49.932;10.884;2024-01-06T09:19:04;14.27;;;6.65;;
66721;SDS011;53633;49.932;10.884;2024-01-06T09:21:31;14.10;;;6.20;;
66721;SDS011;53633;49.932;10.884;2024-01-06T09:23:58;12.95;;;5.55;;
66721;SDS011;53633;49.932;10.884;2024-01-06T09:26:25;14.60;;;6.05;;
66721;SDS011;53633;49.932;10.884;2024-01-06T09:28:52;16.13;;;6.75;;
66721;SDS011;53633;49.932;10.884;2024-01-06T09:31:20;13.57;;;6.18;;
66721;SDS011;53633;49.932;10.884;2024-01-06T09:33:47;16.77;;;6.80;;
66721;SDS011;53633;49.932;10.884;2024-01-06T09:36:13;15.88;;;6.90;;
66721;SDS011;53633;49.932;10.884;2024-01-06T09:38:40;13.30;;;6.32;;
66721;SDS011;53633;49.932;10.884;2024-01-06T09:41:07;16.15;;;7.78;;
66721;SDS011;53633;49.932;10.884;2024-01-06T09:43:34;14.15;;;7.43;;
66721;SDS011;53633;49.932;10.884;2024-01-06T09:46:02;14.40;;;7.00;;
66721;SDS011;53633;49.932;10.884;2024-01-06T09:48:34;13.20;;;6.35;;
66721;SDS011;53633;49.932;10.884;2024-01-06T09:51:05;13.95;;;6.32;;
66721;SDS011;53633;49.932;10.884;2024-01-06T09:53:36;14.82;;;6.70;;
66721;SDS011;53633;49.932;10.884;2024-01-06T09:56:11;13.95;;;6.40;;
66721;SDS011;53633;49.932;10.884;2024-01-06T09:58:40;11.17;;;5.70;;
66721;SDS011;53633;49.932;10.884;2024-01-06T10:01:11;12.63;;;4.88;;
66721;SDS011;53633;49.932;10.884;2024-01-06T10:03:39;11.15;;;4.72;;
66721;SDS011;53633;49.932;10.884;2024-01-06T10:06:06;11.52;;;4.95;;
66721;SDS011;53633;49.932;10.884;2024-01-06T10:08:33;22.98;;;10.18;;
66721;SDS011;53633;49.932;10.884;2024-01-06T10:11:01;29.43;;;11.67;;
66721;SDS011;53633;49.932;10.884;2024-01-06T10:13:28;21.85;;;9.68;;
66721;SDS011;53633;49.932;10.884;2024-01-06T10:15:55;15.52;;;6.65;;
66721;SDS011;53633;49.932;10.884;2024-01-06T10:18:22;12.85;;;5.93;;
66721;SDS011;53633;49.932;10.884;2024-01-06T10:20:53;12.20;;;5.53;;
66721;SDS011;53633;49.932;10.884;2024-01-06T10:23:19;11.73;;;5.80;;
66721;SDS011;53633;49.932;10.884;2024-01-06T10:25:48;12.13;;;5.68;;
66721;SDS011;53633;49.932;10.884;2024-01-06T10:28:22;12.63;;;6.25;;
66721;SDS011;53633;49.932;10.884;2024-01-06T10:30:49;12.55;;;6.50;;
66721;SDS011;53633;49.932;10.884;2024-01-06T10:33:18;11.90;;;5.50;;
66721;SDS011;53633;49.932;10.884;2024-01-06T10:35:45;13.00;;;6.30;;
66721;SDS011;53633;49.932;10.884;2024-01-06T10:38:13;15.80;;;7.15;;
66721;SDS011;53633;49.932;10.884;2024-01-06T10:40:45;11.73;;;5.00;;
66721;SDS011;53633;49.932;10.884;2024-01-06T10:43:23;12.25;;;6.03;;
66721;SDS011;53633;49.932;10.884;2024-01-06T10:45:51;12.95;;;5.85;;
66721;SDS011;53633;49.932;10.884;2024-01-06T10:48:19;9.33;;;4.87;;
66721;SDS011;53633;49.932;10.884;2024-01-06T10:50:48;11.05;;;5.10;;
66721;SDS011;53633;49.932;10.884;2024-01-06T10:53:16;10.77;;;5.00;;
66721;SDS011;53633;49.932;10.884;2024-01-06T10:55:44;10.70;;;4.68;;
66721;SDS011;53633;49.932;10.884;2024-01-06T10:58:11;10.60;;;4.90;;
66721;SDS011;53633;49.932;10.884;2024-01-06T11:00:40;13.40;;;4.53;;
66721;SDS011;53633;49.932;10.884;2024-01-06T11:03:07;10.60;;;4.65;;
66721;SDS011;53633;49.932;10.884;2024-01-06T11:05:36;9.80;;;4.00;;
66721;SDS011;53633;49.932;10.884;2024-01-06T11:08:03;10.48;;;3.85;;
66721;SDS011;53633;49.932;10.884;2024-01-06T11:10:32;9.77;;;3.90;;
66721;SDS011;53633;49.932;10.884;2024-01-06T11:13:08;8.83;;;3.10;;
66721;SDS011;53633;49.932;10.884;2024-01-06T11:15:38;10.00;;;4.10;;
66721;SDS011;53633;49.932;10.884;2024-01-06T11:18:06;10.88;;;4.60;;
66721;SDS011;53633;49.932;10.884;2024-01-06T11:20:33;12.25;;;4.95;;
66721;SDS011;53633;49.932;10.884;2024-01-06T11:25:47;14.80;;;5.90;;
66721;SDS011;53633;49.932;10.884;2024-01-06T11:28:13;11.98;;;5.78;;
66721;SDS011;53633;49.932;10.884;2024-01-06T11:30:43;12.90;;;6.07;;
66721;SDS011;53633;49.932;10.884;2024-01-06T11:33:10;14.15;;;5.88;;
66721;SDS011;53633;49.932;10.884;2024-01-06T11:35:37;11.90;;;4.93;;
66721;SDS011;53633;49.932;10.884;2024-01-06T11:38:06;11.57;;;5.30;;
66721;SDS011;53633;49.932;10.884;2024-01-06T11:40:33;11.77;;;5.38;;
66721;SDS011;53633;49.932;10.884;2024-01-06T11:43:03;12.75;;;5.55;;
66721;SDS011;53633;49.932;10.884;2024-01-06T11:45:31;9.68;;;4.80;;
66721;SDS011;53633;49.932;10.884;2024-01-06T11:47:59;10.35;;;4.07;;
66721;SDS011;53633;49.932;10.884;2024-01-06T11:50:27;10.27;;;5.23;;
66721;SDS011;53633;49.932;10.884;2024-01-06T11:52:54;12.25;;;5.10;;
66721;SDS011;53633;49.932;10.884;2024-01-06T11:55:21;11.13;;;5.10;;
66721;SDS011;53633;49.932;10.884;2024-01-06T11:57:48;11.82;;;5.05;;
66721;SDS011;53633;49.932;10.884;2024-01-06T12:00:17;12.40;;;4.90;;
66721;SDS011;53633;49.932;10.884;2024-01-06T12:02:44;10.43;;;5.00;;
66721;SDS011;53633;49.932;10.884;2024-01-06T12:05:14;9.88;;;4.90;;
66721;SDS011;53633;49.932;10.884;2024-01-06T12:07:41;10.57;;;4.80;;
66721;SDS011;53633;49.932;10.884;2024-01-06T12:10:08;11.35;;;4.97;;
66721;SDS011;53633;49.932;10.884;2024-01-06T12:12:35;10.65;;;5.18;;
66721;SDS011;53633;49.932;10.884;2024-01-06T12:15:02;12.27;;;5.22;;
66721;SDS011;53633;49.932;10.884;2024-01-06T12:17:31;12.38;;;4.43;;
66721;SDS011;53633;49.932;10.884;2024-01-06T12:19:58;11.18;;;4.85;;
66721;SDS011;53633;49.932;10.884;2024-01-06T12:22:25;9.13;;;4.10;;
66721;SDS011;53633;49.932;10.884;2024-01-06T12:24:52;10.80;;;4.00;;
66721;SDS011;53633;49.932;10.884;2024-01-06T12:27:19;9.23;;;4.50;;
66721;SDS011;53633;49.932;10.884;2024-01-06T12:29:45;7.95;;;4.25;;
66721;SDS011;53633;49.932;10.884;2024-01-06T12:32:12;16.20;;;7.20;;
66721;SDS011;53633;49.932;10.884;2024-01-06T12:34:40;10.63;;;4.65;;
66721;SDS011;53633;49.932;10.884;2024-01-06T12:37:07;11.68;;;4.28;;
66721;SDS011;53633;49.932;10.884;2024-01-06T12:39:34;9.87;;;3.70;;
66721;SDS011;53633;49.932;10.884;2024-01-06T12:42:01;6.30;;;2.58;;
66721;SDS011;53633;49.932;10.884;2024-01-06T12:44:28;7.10;;;2.50;;
66721;SDS011;53633;49.932;10.884;2024-01-06T12:46:55;8.07;;;3.05;;
66721;SDS011;53633;49.932;10.884;2024-01-06T12:49:22;9.27;;;3.58;;
66721;SDS011;53633;49.932;10.884;2024-01-06T12:51:50;9.90;;;3.20;;
66721;SDS011;53633;49.932;10.884;2024-01-06T12:54:17;12.15;;;4.07;;
66721;SDS011;53633;49.932;10.884;2024-01-06T12:56:44;13.30;;;4.93;;
66721;SDS011;53633;49.932;10.884;2024-01-06T12:59:11;12.13;;;4.20;;
66721;SDS011;53633;49.932;10.884;2024-01-06T13:01:38;11.50;;;4.68;;
66721;SDS011;53633;49.932;10.884;2024-01-06T13:04:05;11.60;;;4.10;;
66721;SDS011;53633;49.932;10.884;2024-01-06T13:06:32;10.10;;;3.92;;
66721;SDS011;53633;49.932;10.884;2024-01-06T13:09:00;11.30;;;4.35;;
66721;SDS011;53633;49.932;10.884;2024-01-06T13:11:27;12.13;;;4.68;;
66721;SDS011;53633;49.932;10.884;2024-01-06T13:13:54;11.70;;;5.30;;
66721;SDS011;53633;49.932;10.884;2024-01-06T13:16:21;12.75;;;3.97;;
66721;SDS011;53633;49.932;10.884;2024-01-06T13:18:47;8.95;;;3.80;;
66721;SDS011;53633;49.932;10.884;2024-01-06T13:21:17;11.35;;;3.90;;
66721;SDS011;53633;49.932;10.884;2024-01-06T13:23:44;9.38;;;4.05;;
66721;SDS011;53633;49.932;10.884;2024-01-06T13:26:12;8.30;;;3.63;;
66721;SDS011;53633;49.932;10.884;2024-01-06T13:28:39;8.33;;;3.10;;
66721;SDS011;53633;49.932;10.884;2024-01-06T13:31:05;11.23;;;4.00;;
66721;SDS011;53633;49.932;10.884;2024-01-06T13:33:32;9.57;;;4.22;;
66721;SDS011;53633;49.932;10.884;2024-01-06T13:35:59;12.27;;;4.20;;
66721;SDS011;53633;49.932;10.884;2024-01-06T13:38:26;9.27;;;3.75;;
66721;SDS011;53633;49.932;10.884;2024-01-06T13:40:53;11.60;;;4.03;;
66721;SDS011;53633;49.932;10.884;2024-01-06T13:43:21;12.25;;;3.75;;
66721;SDS011;53633;49.932;10.884;2024-01-06T13:45:48;9.27;;;4.18;;
66721;SDS011;53633;49.932;10.884;2024-01-06T13:48:15;11.88;;;3.97;;
66721;SDS011;53633;49.932;10.884;2024-01-06T13:50:42;8.23;;;3.75;;
66721;SDS011;53633;49.932;10.884;2024-01-06T13:53:08;10.53;;;3.83;;
66721;SDS011;53633;49.932;10.884;2024-01-06T13:55:35;10.52;;;3.55;;
66721;SDS011;53633;49.932;10.884;2024-01-06T13:58:02;7.57;;;3.33;;
66721;SDS011;53633;49.932;10.884;2024-01-06T14:00:30;8.80;;;3.22;;
66721;SDS011;53633;49.932;10.884;2024-01-06T14:02:57;8.30;;;3.50;;
66721;SDS011;53633;49.932;10.884;2024-01-06T14:05:24;7.72;;;3.10;;
66721;SDS011;53633;49.932;10.884;2024-01-06T14:07:51;9.95;;;3.88;;
66721;SDS011;53633;49.932;10.884;2024-01-06T14:10:18;8.63;;;3.22;;
66721;SDS011;53633;49.932;10.884;2024-01-06T14:12:45;13.95;;;3.92;;
66721;SDS011;53633;49.932;10.884;2024-01-06T14:15:12;10.82;;;3.03;;
66721;SDS011;53633;49.932;10.884;2024-01-06T14:17:40;10.30;;;4.33;;
66721;SDS011;53633;49.932;10.884;2024-01-06T14:20:07;10.65;;;3.65;;
66721;SDS011;53633;49.932;10.884;2024-01-06T14:22:35;14.70;;;5.55;;
66721;SDS011;53633;49.932;10.884;2024-01-06T14:25:02;20.10;;;7.43;;
66721;SDS011;53633;49.932;10.884;2024-01-06T14:27:32;22.02;;;8.38;;
66721;SDS011;53633;49.932;10.884;2024-01-06T14:29:59;13.90;;;6.20;;
66721;SDS011;53633;49.932;10.884;2024-01-06T14:32:25;15.40;;;7.05;;
66721;SDS011;53633;49.932;10.884;2024-01-06T14:34:53;18.00;;;8.05;;
66721;SDS011;53633;49.932;10.884;2024-01-06T14:37:20;18.30;;;8.00;;
66721;SDS011;53633;49.932;10.884;2024-01-06T14:39:47;16.38;;;6.82;;
66721;SDS011;53633;49.932;10.884;2024-01-06T14:42:14;14.70;;;6.43;;
66721;SDS011;53633;49.932;10.884;2024-01-06T14:44:41;14.70;;;6.20;;
66721;SDS011;53633;49.932;10.884;2024-01-06T14:47:07;15.75;;;6.25;;
66721;SDS011;53633;49.932;10.884;2024-01-06T14:49:34;15.25;;;6.10;;
66721;SDS011;53633;49.932;10.884;2024-01-06T14:52:02;12.73;;;5.32;;
66721;SDS011;53633;49.932;10.884;2024-01-06T14:54:30;12.33;;;4.97;;
66721;SDS011;53633;49.932;10.884;2024-01-06T14:56:57;12.40;;;5.03;;
66721;SDS011;53633;49.932;10.884;2024-01-06T14:59:24;11.63;;;4.82;;
66721;SDS011;53633;49.932;10.884;2024-01-06T15:01:51;13.40;;;5.22;;
66721;SDS011;53633;49.932;10.884;2024-01-06T15:04:18;13.63;;;6.13;;
66721;SDS011;53633;49.932;10.884;2024-01-06T15:06:45;11.80;;;5.47;;
66721;SDS011;53633;49.932;10.884;2024-01-06T15:09:13;15.15;;;5.25;;
66721;SDS011;53633;49.932;10.884;2024-01-06T15:11:40;12.77;;;4.60;;
66721;SDS011;53633;49.932;10.884;2024-01-06T15:14:07;13.20;;;5.20;;
66721;SDS011;53633;49.932;10.884;2024-01-06T15:16:33;11.95;;;4.50;;
66721;SDS011;53633;49.932;10.884;2024-01-06T15:19:00;10.73;;;4.60;;
66721;SDS011;53633;49.932;10.884;2024-01-06T15:21:27;35.15;;;12.23;;
66721;SDS011;53633;49.932;10.884;2024-01-06T15:23:54;37.80;;;14.55;;
66721;SDS011;53633;49.932;10.884;2024-01-06T15:26:23;29.67;;;13.00;;
66721;SDS011;53633;49.932;10.884;2024-01-06T15:28:50;36.13;;;14.98;;
66721;SDS011;53633;49.932;10.884;2024-01-06T15:31:17;34.77;;;17.63;;
66721;SDS011;53633;49.932;10.884;2024-01-06T15:33:44;26.17;;;12.65;;
66721;SDS011;53633;49.932;10.884;2024-01-06T15:36:11;22.08;;;10.52;;
66721;SDS011;53633;49.932;10.884;2024-01-06T15:38:38;15.02;;;7.38;;
66721;SDS011;53633;49.932;10.884;2024-01-06T15:41:04;15.82;;;6.35;;
66721;SDS011;53633;49.932;10.884;2024-01-06T15:43:33;13.30;;;5.97;;
66721;SDS011;53633;49.932;10.884;2024-01-06T15:46:00;14.90;;;6.18;;
66721;SDS011;53633;49.932;10.884;2024-01-06T15:48:26;14.50;;;6.20;;
66721;SDS011;53633;49.932;10.884;2024-01-06T15:50:53;15.98;;;5.25;;
66721;SDS011;53633;49.932;10.884;2024-01-06T15:53:20;12.35;;;4.80;;
66721;SDS011;53633;49.932;10.884;2024-01-06T15:55:47;10.83;;;4.50;;
66721;SDS011;53633;49.932;10.884;2024-01-06T15:58:14;11.07;;;4.82;;
66721;SDS011;53633;49.932;10.884;2024-01-06T16:00:42;12.82;;;4.88;;
66721;SDS011;53633;49.932;10.884;2024-01-06T16:03:09;10.75;;;5.07;;
66721;SDS011;53633;49.932;10.884;2024-01-06T16:05:36;10.55;;;5.00;;
66721;SDS011;53633;49.932;10.884;2024-01-06T16:08:03;10.30;;;4.17;;
66721;SDS011;53633;49.932;10.884;2024-01-06T16:10:31;10.88;;;4.30;;
66721;SDS011;53633;49.932;10.884;2024-01-06T16:12:57;11.25;;;5.68;;
66721;SDS011;53633;49.932;10.884;2024-01-06T16:15:24;13.18;;;5.70;;
66721;SDS011;53633;49.932;10.884;2024-01-06T16:17:52;13.00;;;5.40;;
66721;SDS011;53633;49.932;10.884;2024-01-06T16:20:19;14.10;;;5.43;;
66721;SDS011;53633;49.932;10.884;2024-01-06T16:22:46;14.73;;;5.75;;
66721;SDS011;53633;49.932;10.884;2024-01-06T16:25:13;13.27;;;4.72;;
66721;SDS011;53633;49.932;10.884;2024-01-06T16:27:39;9.68;;;4.70;;
66721;SDS011;53633;49.932;10.884;2024-01-06T16:30:07;11.60;;;5.63;;
66721;SDS011;53633;49.932;10.884;2024-01-06T16:32:35;12.13;;;4.67;;
66721;SDS011;53633;49.932;10.884;2024-01-06T16:35:03;15.20;;;6.00;;
66721;SDS011;53633;49.932;10.884;2024-01-06T16:37:30;12.48;;;5.75;;
66721;SDS011;53633;49.932;10.884;2024-01-06T16:39:57;18.52;;;7.57;;
66721;SDS011;53633;49.932;10.884;2024-01-06T16:42:24;16.55;;;6.80;;
66721;SDS011;53633;49.932;10.884;2024-01-06T16:44:50;15.30;;;6.60;;
66721;SDS011;53633;49.932;10.884;2024-01-06T16:47:17;15.43;;;6.97;;
66721;SDS011;53633;49.932;10.884;2024-01-06T16:49:44;14.10;;;6.70;;
66721;SDS011;53633;49.932;10.884;2024-01-06T16:52:12;14.20;;;6.20;;
66721;SDS011;53633;49.932;10.884;2024-01-06T16:54:39;16.95;;;6.78;;
66721;SDS011;53633;49.932;10.884;2024-01-06T16:57:06;12.67;;;5.93;;
66721;SDS011;53633;49.932;10.884;2024-01-06T16:59:33;15.20;;;7.18;;
66721;SDS011;53633;49.932;10.884;2024-01-06T17:01:59;14.05;;;6.82;;
66721;SDS011;53633;49.932;10.884;2024-01-06T17:04:26;16.52;;;6.93;;
